createdAt,value
2018-11-25T00:00:55.585Z,0.40
2018-11-25T00:03:27.465Z,0.40
2018-11-25T00:05:59.123Z,0.40
2018-11-25T00:08:31.080Z,0.40
2018-11-25T00:11:03.043Z,0.40
2018-11-25T00:13:35.205Z,0.30
2018-11-25T00:16:06.703Z,0.30
2018-11-25T00:18:38.093Z,0.30
2018-11-25T00:21:10.318Z,0.30
2018-11-25T00:23:41.786Z,0.30
2018-11-25T00:26:13.533Z,0.30
2018-11-25T00:28:45.248Z,0.30
2018-11-25T00:31:18.002Z,0.30
2018-11-25T00:33:49.548Z,0.30
2018-11-25T00:36:23.092Z,0.30
2018-11-25T00:38:54.753Z,0.20
2018-11-25T00:41:26.401Z,0.30
2018-11-25T00:43:59.316Z,0.20
2018-11-25T00:46:31.553Z,0.20
2018-11-25T00:49:03.736Z,0.20
2018-11-25T00:51:35.720Z,0.30
2018-11-25T00:54:08.353Z,0.30
2018-11-25T00:56:41.417Z,0.30
2018-11-25T00:59:14.553Z,0.30
2018-11-25T01:01:49.803Z,0.30
2018-11-25T01:04:33.241Z,0.30
2018-11-25T01:07:06.004Z,0.30
2018-11-25T01:09:40.507Z,0.30
2018-11-25T01:12:12.470Z,0.20
2018-11-25T01:14:54.065Z,0.20
2018-11-25T01:17:26.947Z,0.20
2018-11-25T01:19:59.572Z,0.20
2018-11-25T01:22:55.676Z,0.20
2018-11-25T01:25:27.915Z,0.10
2018-11-25T01:27:59.583Z,0.20
2018-11-25T01:30:31.387Z,0.20
2018-11-25T01:33:04.071Z,0.20
2018-11-25T01:35:36.146Z,0.20
2018-11-25T01:38:08.404Z,0.20
2018-11-25T01:40:40.318Z,0.20
2018-11-25T01:43:12.458Z,0.30
2018-11-25T01:45:44.383Z,0.30
2018-11-25T01:48:17.394Z,0.30
2018-11-25T01:50:49.205Z,0.30
2018-11-25T01:53:20.858Z,0.30
2018-11-25T01:55:52.462Z,0.30
2018-11-25T01:58:24.441Z,0.30
2018-11-25T02:00:56.397Z,0.30
2018-11-25T02:03:28.571Z,0.30
2018-11-25T02:06:00.343Z,0.30
2018-11-25T02:08:32.065Z,0.30
2018-11-25T02:11:04.293Z,0.40
2018-11-25T02:13:41.780Z,0.40
2018-11-25T02:16:15.178Z,0.40
2018-11-25T02:18:48.747Z,0.40
2018-11-25T02:21:22.243Z,0.40
2018-11-25T02:23:54.746Z,0.40
2018-11-25T02:26:26.667Z,0.40
2018-11-25T02:28:58.651Z,0.40
2018-11-25T02:31:30.535Z,0.40
2018-11-25T02:34:02.588Z,0.50
2018-11-25T02:36:34.275Z,0.50
2018-11-25T02:39:06.174Z,0.50
2018-11-25T02:41:41.760Z,0.50
2018-11-25T02:44:26.302Z,0.60
2018-11-25T02:47:01.278Z,0.60
2018-11-25T02:49:34.864Z,0.70
2018-11-25T02:52:06.787Z,0.70
2018-11-25T02:54:38.738Z,0.70
2018-11-25T02:57:10.749Z,0.80
2018-11-25T02:59:42.388Z,0.80
2018-11-25T03:02:14.226Z,0.80
2018-11-25T03:04:46.606Z,0.90
2018-11-25T03:07:19.744Z,0.90
2018-11-25T03:09:53.318Z,0.90
2018-11-25T03:12:24.997Z,0.90
2018-11-25T03:14:56.779Z,0.90
2018-11-25T03:17:34.486Z,0.90
2018-11-25T03:20:06.626Z,1.00
2018-11-25T03:22:38.399Z,1.10
2018-11-25T03:25:15.787Z,1.20
2018-11-25T03:29:58.608Z,1.20
2018-11-25T03:32:30.239Z,1.20
2018-11-25T03:35:02.394Z,1.20
2018-11-25T03:37:34.305Z,1.20
2018-11-25T03:40:18.493Z,1.20
2018-11-25T03:42:50.270Z,1.20
2018-11-25T03:45:22.996Z,1.20
2018-11-25T03:47:54.640Z,1.10
2018-11-25T03:50:26.114Z,1.10
2018-11-25T03:52:57.705Z,1.10
2018-11-25T03:55:29.094Z,1.00
2018-11-25T03:58:00.467Z,1.00
2018-11-25T04:00:33.065Z,1.00
2018-11-25T04:03:04.704Z,0.90
2018-11-25T04:05:36.098Z,0.90
2018-11-25T04:08:07.912Z,0.90
2018-11-25T04:10:39.221Z,0.90
2018-11-25T04:13:10.982Z,0.90
2018-11-25T04:15:42.625Z,0.90
2018-11-25T04:18:14.060Z,1.00
2018-11-25T04:20:45.848Z,0.90
2018-11-25T04:23:18.020Z,0.90
2018-11-25T04:25:49.672Z,1.00
2018-11-25T04:28:21.442Z,0.90
2018-11-25T04:30:53.063Z,0.90
2018-11-25T04:33:24.779Z,0.90
2018-11-25T04:35:57.038Z,0.90
2018-11-25T04:38:28.807Z,0.90
2018-11-25T04:41:00.390Z,0.80
2018-11-25T04:43:32.059Z,0.80
2018-11-25T04:46:03.678Z,0.80
2018-11-25T04:48:35.185Z,0.80
2018-11-25T04:51:07.367Z,0.80
2018-11-25T04:53:38.869Z,0.80
2018-11-25T04:56:10.568Z,0.80
2018-11-25T04:58:42.182Z,0.80
2018-11-25T05:01:14.267Z,0.80
2018-11-25T05:03:45.642Z,0.90
2018-11-25T05:06:17.065Z,0.90
2018-11-25T05:08:48.828Z,1.00
2018-11-25T05:11:20.263Z,1.00
2018-11-25T05:13:51.725Z,1.10
2018-11-25T05:16:23.841Z,1.10
2018-11-25T05:18:55.175Z,1.10
2018-11-25T05:21:26.944Z,1.10
2018-11-25T05:23:58.561Z,1.00
2018-11-25T05:26:30.321Z,1.00
2018-11-25T05:29:01.811Z,1.00
2018-11-25T05:31:33.662Z,0.90
2018-11-25T05:34:05.079Z,0.90
2018-11-25T05:36:36.981Z,0.90
2018-11-25T05:39:10.998Z,0.90
2018-11-25T05:41:42.650Z,0.80
2018-11-25T05:44:14.138Z,0.90
2018-11-25T05:46:45.951Z,0.80
2018-11-25T05:49:17.226Z,0.80
2018-11-25T05:51:49.058Z,0.80
2018-11-25T05:54:20.649Z,0.80
2018-11-25T05:56:52.801Z,0.80
2018-11-25T05:59:24.744Z,0.70
2018-11-25T06:01:56.431Z,0.70
2018-11-25T06:04:28.225Z,0.70
2018-11-25T06:07:00.118Z,0.70
2018-11-25T06:09:31.498Z,0.70
2018-11-25T06:12:03.077Z,0.60
2018-11-25T06:14:34.403Z,0.60
2018-11-25T06:17:05.896Z,0.60
2018-11-25T06:19:37.275Z,0.60
2018-11-25T06:22:09.551Z,0.60
2018-11-25T06:24:41.006Z,0.60
2018-11-25T06:27:12.698Z,0.60
2018-11-25T06:29:44.076Z,0.60
2018-11-25T06:32:16.325Z,0.60
2018-11-25T06:34:48.413Z,0.60
2018-11-25T06:37:20.250Z,0.60
2018-11-25T06:39:51.831Z,0.60
2018-11-25T06:42:24.811Z,0.60
2018-11-25T06:44:56.859Z,0.60
2018-11-25T06:47:28.503Z,0.60
2018-11-25T06:50:00.103Z,0.60
2018-11-25T06:52:31.805Z,0.60
2018-11-25T06:55:03.350Z,0.60
2018-11-25T06:57:35.201Z,0.60
2018-11-25T07:00:10.709Z,0.60
2018-11-25T07:02:42.333Z,0.60
2018-11-25T07:05:13.939Z,0.60
2018-11-25T07:07:45.690Z,0.60
2018-11-25T07:10:19.297Z,0.60
2018-11-25T07:12:51.626Z,0.60
2018-11-25T07:15:23.900Z,0.60
2018-11-25T07:17:55.887Z,0.60
2018-11-25T07:20:28.082Z,0.60
2018-11-25T07:22:59.853Z,0.60
2018-11-25T07:25:31.253Z,0.60
2018-11-25T07:28:17.637Z,0.60
2018-11-25T07:30:34.324Z,0.70
2018-11-25T07:33:06.091Z,0.70
2018-11-25T07:35:37.710Z,0.60
2018-11-25T07:38:09.844Z,0.60
2018-11-25T07:40:41.314Z,0.70
2018-11-25T07:43:12.927Z,0.70
2018-11-25T07:45:44.309Z,0.70
2018-11-25T07:48:15.748Z,0.70
2018-11-25T07:50:47.260Z,0.80
2018-11-25T07:53:18.733Z,0.80
2018-11-25T07:55:50.432Z,0.80
2018-11-25T07:58:22.226Z,0.80
2018-11-25T08:00:53.791Z,0.80
2018-11-25T08:03:25.615Z,0.80
2018-11-25T08:05:56.979Z,0.80
2018-11-25T08:08:28.942Z,0.80
2018-11-25T08:11:00.407Z,0.80
2018-11-25T08:13:32.309Z,0.80
2018-11-25T08:16:03.671Z,0.90
2018-11-25T08:18:35.449Z,0.90
2018-11-25T08:21:07.578Z,0.90
2018-11-25T08:23:39.284Z,0.90
2018-11-25T08:26:10.732Z,0.90
2018-11-25T08:28:42.642Z,1.00
2018-11-25T08:31:14.286Z,0.90
2018-11-25T08:33:46.024Z,1.00
2018-11-25T08:36:17.569Z,0.90
2018-11-25T08:38:49.280Z,1.00
2018-11-25T08:41:20.704Z,1.00
2018-11-25T08:43:52.358Z,1.00
2018-11-25T08:46:23.910Z,1.00
2018-11-25T08:48:55.658Z,1.10
2018-11-25T08:51:27.471Z,1.10
2018-11-25T08:53:59.297Z,1.10
2018-11-25T08:56:31.014Z,1.10
2018-11-25T08:59:03.011Z,1.10
2018-11-25T09:01:34.685Z,1.10
2018-11-25T09:04:06.406Z,1.10
2018-11-25T09:06:38.210Z,1.10
2018-11-25T09:09:10.988Z,1.10
2018-11-25T09:11:42.990Z,1.10
2018-11-25T09:14:14.876Z,1.00
2018-11-25T09:16:46.484Z,1.00
2018-11-25T09:19:18.492Z,1.00
2018-11-25T09:21:49.992Z,1.00
2018-11-25T09:24:21.638Z,1.00
2018-11-25T09:26:53.176Z,1.00
2018-11-25T09:29:24.927Z,1.00
2018-11-25T09:31:56.358Z,1.00
2018-11-25T09:34:28.593Z,1.00
2018-11-25T09:36:59.959Z,1.00
2018-11-25T09:39:31.729Z,1.00
2018-11-25T09:42:03.075Z,1.00
2018-11-25T09:44:34.966Z,1.00
2018-11-25T09:47:06.589Z,1.00
2018-11-25T09:49:38.775Z,1.00
2018-11-25T09:52:10.586Z,1.10
2018-11-25T09:54:42.278Z,1.10
2018-11-25T09:57:13.840Z,1.10
2018-11-25T09:59:45.600Z,1.10
2018-11-25T10:02:17.302Z,1.10
2018-11-25T10:04:49.291Z,1.10
2018-11-25T10:07:20.998Z,1.10
2018-11-25T10:09:52.758Z,1.10
2018-11-25T10:12:24.213Z,1.10
2018-11-25T10:14:55.759Z,1.10
2018-11-25T10:17:27.592Z,1.20
2018-11-25T10:19:59.146Z,1.20
2018-11-25T10:22:30.725Z,1.20
2018-11-25T10:25:02.415Z,1.20
2018-11-25T10:27:34.094Z,1.20
2018-11-25T10:30:06.057Z,1.20
2018-11-25T10:32:37.708Z,1.20
2018-11-25T10:35:10.291Z,1.20
2018-11-25T10:37:41.812Z,1.20
2018-11-25T10:40:16.245Z,1.20
2018-11-25T10:42:47.631Z,1.30
2018-11-25T10:45:23.246Z,1.30
2018-11-25T10:47:54.782Z,1.30
2018-11-25T10:50:26.248Z,1.30
2018-11-25T10:52:58.294Z,1.30
2018-11-25T10:55:29.852Z,1.30
2018-11-25T10:58:01.195Z,1.40
2018-11-25T11:00:38.730Z,1.40
2018-11-25T11:03:16.584Z,1.40
2018-11-25T11:05:52.677Z,1.40
2018-11-25T11:08:24.006Z,1.50
2018-11-25T11:10:55.247Z,1.50
2018-11-25T11:13:26.918Z,1.60
2018-11-25T11:15:58.930Z,1.60
2018-11-25T11:18:30.168Z,1.60
2018-11-25T11:21:01.829Z,1.60
2018-11-25T11:23:33.146Z,1.70
2018-11-25T11:26:07.037Z,1.70
2018-11-25T11:28:36.604Z,1.70
2018-11-25T11:31:13.358Z,1.70
2018-11-25T11:33:39.940Z,1.80
2018-11-25T11:36:12.409Z,1.80
2018-11-25T11:38:43.932Z,1.80
2018-11-25T11:41:15.765Z,1.80
2018-11-25T11:43:47.523Z,1.80
2018-11-25T11:46:19.280Z,1.80
2018-11-25T11:48:50.678Z,1.80
2018-11-25T11:51:25.641Z,1.80
2018-11-25T11:53:53.958Z,1.80
2018-11-25T11:56:25.720Z,1.80
2018-11-25T11:58:57.152Z,1.90
2018-11-25T12:01:29.238Z,1.90
2018-11-25T12:04:01.793Z,1.90
2018-11-25T12:06:33.487Z,1.90
2018-11-25T12:09:05.568Z,2.00
2018-11-25T12:11:37.145Z,2.00
2018-11-25T12:14:08.546Z,2.00
2018-11-25T12:16:40.480Z,2.00
2018-11-25T12:19:12.416Z,2.00
2018-11-25T12:21:44.225Z,2.00
2018-11-25T12:24:15.697Z,2.00
2018-11-25T12:26:47.677Z,2.00
2018-11-25T12:29:19.232Z,2.10
2018-11-25T12:31:50.745Z,2.00
2018-11-25T12:34:22.072Z,1.90
2018-11-25T12:36:53.832Z,1.90
2018-11-25T12:39:28.500Z,1.90
2018-11-25T12:41:57.660Z,1.90
2018-11-25T12:44:29.283Z,1.90
2018-11-25T12:47:00.888Z,2.00
2018-11-25T12:52:15.591Z,2.00
2018-11-25T12:54:47.205Z,2.10
2018-11-25T12:57:19.283Z,2.00
2018-11-25T12:59:53.254Z,2.00
2018-11-25T13:02:25.533Z,2.10
2018-11-25T13:04:58.057Z,2.10
2018-11-25T13:07:29.986Z,2.10
2018-11-25T13:10:01.502Z,2.10
2018-11-25T13:12:34.116Z,2.10
2018-11-25T13:15:05.660Z,2.20
2018-11-25T13:17:37.368Z,2.20
2018-11-25T13:20:11.780Z,2.20
2018-11-25T13:22:44.352Z,2.20
2018-11-25T13:25:17.736Z,2.20
2018-11-25T13:27:49.501Z,2.30
2018-11-25T13:30:25.122Z,2.30
2018-11-25T13:32:58.576Z,2.30
2018-11-25T13:35:31.304Z,2.30
2018-11-25T13:38:03.543Z,2.30
2018-11-25T13:40:35.346Z,2.30
2018-11-25T13:43:07.420Z,2.30
2018-11-25T13:45:38.948Z,2.40
2018-11-25T13:48:12.282Z,2.40
2018-11-25T13:50:43.732Z,2.40
2018-11-25T13:53:15.446Z,2.40
2018-11-25T13:55:50.968Z,2.50
2018-11-25T13:58:22.924Z,2.50
2018-11-25T14:00:55.075Z,2.50
2018-11-25T14:03:29.890Z,2.50
2018-11-25T14:06:01.532Z,2.50
2018-11-25T14:08:33.437Z,2.50
2018-11-25T14:11:08.708Z,2.50
2018-11-25T14:13:40.441Z,2.50
2018-11-25T14:16:13.855Z,2.60
2018-11-25T14:18:45.895Z,2.60
2018-11-25T14:21:17.291Z,2.60
2018-11-25T14:23:49.392Z,2.70
2018-11-25T14:26:26.394Z,2.80
2018-11-25T14:29:03.656Z,2.80
2018-11-25T14:31:34.984Z,2.90
2018-11-25T14:34:07.382Z,2.90
2018-11-25T14:36:42.318Z,3.00
2018-11-25T14:39:21.214Z,3.00
2018-11-25T14:41:52.990Z,3.00
2018-11-25T14:44:24.516Z,3.00
2018-11-25T14:46:57.412Z,3.00
2018-11-25T14:49:30.081Z,3.00
2018-11-25T14:52:01.841Z,3.00
2018-11-25T14:54:33.707Z,3.00
2018-11-25T14:57:08.156Z,3.00
2018-11-25T14:59:46.145Z,3.00
2018-11-25T15:02:18.183Z,3.10
2018-11-25T15:04:49.681Z,3.10
2018-11-25T15:07:21.431Z,3.20
2018-11-25T15:09:56.730Z,3.20
2018-11-25T15:12:28.273Z,3.30
2018-11-25T15:14:59.630Z,3.30
2018-11-25T15:17:31.206Z,3.30
2018-11-25T15:20:04.905Z,3.40
2018-11-25T15:25:35.602Z,3.40
2018-11-25T15:28:08.388Z,3.40
2018-11-25T15:30:40.113Z,3.40
2018-11-25T15:33:11.592Z,3.40
2018-11-25T15:35:43.239Z,3.30
2018-11-25T15:38:14.736Z,3.30
2018-11-25T15:40:46.272Z,3.20
2018-11-25T15:43:17.863Z,3.20
2018-11-25T15:45:50.054Z,3.20
2018-11-25T15:48:23.913Z,3.20
2018-11-25T15:50:55.599Z,3.20
2018-11-25T15:53:27.033Z,3.20
2018-11-25T15:56:03.758Z,3.20
2018-11-25T15:58:35.237Z,3.20
2018-11-25T16:01:07.581Z,3.20
2018-11-25T16:03:47.601Z,3.30
2018-11-25T16:06:23.392Z,3.30
2018-11-25T16:08:55.105Z,3.50
2018-11-25T16:11:26.790Z,3.50
2018-11-25T16:13:58.569Z,3.50
2018-11-25T16:16:29.978Z,3.50
2018-11-25T16:19:01.239Z,3.50
2018-11-25T16:21:32.744Z,3.50
2018-11-25T16:24:04.151Z,3.60
2018-11-25T16:26:37.423Z,3.60
2018-11-25T16:29:17.377Z,3.60
2018-11-25T16:31:48.900Z,3.70
2018-11-25T16:34:20.612Z,3.80
2018-11-25T16:36:52.701Z,3.90
2018-11-25T16:39:24.165Z,4.10
2018-11-25T16:41:55.662Z,4.20
2018-11-25T16:44:30.032Z,4.30
2018-11-25T16:47:02.195Z,4.40
2018-11-25T16:49:34.277Z,4.40
2018-11-25T16:52:07.090Z,4.40
2018-11-25T16:54:38.980Z,4.50
2018-11-25T16:57:13.832Z,4.50
2018-11-25T16:59:46.905Z,4.60
2018-11-25T17:02:18.331Z,4.80
2018-11-25T17:04:49.917Z,4.90
2018-11-25T17:07:21.371Z,4.90
2018-11-25T17:09:53.026Z,4.90
2018-11-25T17:12:24.646Z,4.90
2018-11-25T17:14:56.429Z,5.00
2018-11-25T17:17:28.583Z,5.00
2018-11-25T17:20:00.803Z,4.90
2018-11-25T17:22:32.535Z,5.00
2018-11-25T17:25:04.062Z,4.90
2018-11-25T17:27:36.854Z,4.90
2018-11-25T17:30:15.066Z,4.80
2018-11-25T17:32:47.376Z,4.80
2018-11-25T17:35:25.604Z,4.80
2018-11-25T17:37:57.246Z,4.80
2018-11-25T17:40:29.008Z,4.80
2018-11-25T17:43:03.564Z,4.80
2018-11-25T17:45:35.415Z,4.90
2018-11-25T17:48:07.206Z,4.90
2018-11-25T17:50:39.203Z,5.00
2018-11-25T17:53:11.680Z,5.00
2018-11-25T17:55:43.679Z,5.00
2018-11-25T17:58:17.190Z,5.00
2018-11-25T18:00:54.615Z,4.90
2018-11-25T18:03:29.101Z,4.90
2018-11-25T18:08:49.641Z,4.80
2018-11-25T18:11:21.577Z,4.80
2018-11-25T18:13:54.241Z,4.70
2018-11-25T18:16:26.149Z,4.70
2018-11-25T18:19:07.636Z,4.70
2018-11-25T18:21:40.062Z,4.70
2018-11-25T18:24:11.619Z,4.60
2018-11-25T18:26:43.465Z,4.60
2018-11-25T18:29:15.832Z,4.60
2018-11-25T18:31:47.797Z,4.60
2018-11-25T18:34:20.766Z,4.70
2018-11-25T18:39:46.861Z,4.70
2018-11-25T18:42:19.347Z,4.70
2018-11-25T18:44:51.528Z,4.60
2018-11-25T18:47:23.298Z,4.60
2018-11-25T18:49:54.784Z,4.60
2018-11-25T18:52:26.614Z,4.60
2018-11-25T18:54:55.876Z,4.60
2018-11-25T18:57:27.637Z,4.70
2018-11-25T18:59:59.173Z,4.60
2018-11-25T19:02:48.561Z,4.70
2018-11-25T19:05:24.555Z,4.70
2018-11-25T19:08:00.768Z,4.70
2018-11-25T19:10:38.560Z,4.70
2018-11-25T19:13:10.196Z,4.70
2018-11-25T19:15:41.847Z,4.70
2018-11-25T19:18:13.535Z,4.70
2018-11-25T19:20:45.052Z,4.70
2018-11-25T19:23:16.472Z,4.80
2018-11-25T19:25:48.207Z,4.80
2018-11-25T19:28:19.597Z,4.70
2018-11-25T19:30:51.050Z,4.70
2018-11-25T19:33:22.628Z,4.70
2018-11-25T19:35:53.976Z,4.70
2018-11-25T19:38:25.404Z,4.70
2018-11-25T19:40:56.808Z,4.70
2018-11-25T19:43:28.133Z,4.70
2018-11-25T19:45:59.296Z,4.70
2018-11-25T19:48:31.092Z,4.70
2018-11-25T19:51:02.557Z,4.60
2018-11-25T19:53:34.044Z,4.60
2018-11-25T19:56:05.353Z,4.60
2018-11-25T19:58:36.795Z,4.50
2018-11-25T20:01:09.114Z,4.50
2018-11-25T20:03:40.599Z,4.40
2018-11-25T20:06:12.073Z,4.40
2018-11-25T20:08:43.432Z,4.30
2018-11-25T20:11:14.672Z,4.20
2018-11-25T20:13:46.154Z,4.20
2018-11-25T20:16:22.045Z,4.10
2018-11-25T20:19:03.336Z,4.10
2018-11-25T20:21:39.094Z,4.10
2018-11-25T20:24:10.344Z,4.00
2018-11-25T20:26:45.742Z,4.00
2018-11-25T20:29:17.680Z,3.90
2018-11-25T20:31:52.807Z,4.00
2018-11-25T20:34:24.484Z,3.90
2018-11-25T20:36:56.269Z,3.90
2018-11-25T20:39:33.114Z,4.10
2018-11-25T20:42:04.943Z,4.10
2018-11-25T20:44:36.849Z,4.10
2018-11-25T20:47:09.437Z,4.20
2018-11-25T20:49:41.456Z,4.20
2018-11-25T20:52:17.653Z,4.20
2018-11-25T20:54:49.144Z,4.20
2018-11-25T20:57:21.192Z,4.20
2018-11-25T20:59:52.879Z,4.10
2018-11-25T21:02:29.009Z,4.00
2018-11-25T21:04:56.438Z,3.90
2018-11-25T21:07:28.270Z,3.90
2018-11-25T21:09:59.933Z,3.80
2018-11-25T21:12:31.808Z,3.80
2018-11-25T21:15:04.067Z,3.70
2018-11-25T21:17:35.706Z,3.60
2018-11-25T21:20:10.183Z,3.50
2018-11-25T21:22:41.712Z,3.50
2018-11-25T21:25:29.473Z,3.50
2018-11-25T21:28:01.053Z,3.50
2018-11-25T21:30:32.610Z,3.50
2018-11-25T21:33:04.028Z,3.50
2018-11-25T21:35:35.606Z,3.50
2018-11-25T21:38:07.240Z,3.50
2018-11-25T21:40:38.892Z,3.50
2018-11-25T21:43:10.724Z,3.50
2018-11-25T21:45:44.349Z,3.50
2018-11-25T21:48:15.698Z,3.50
2018-11-25T21:50:47.189Z,3.50
2018-11-25T21:53:18.683Z,3.60
2018-11-25T21:58:22.013Z,3.60
2018-11-25T22:00:53.614Z,3.50
2018-11-25T22:03:25.117Z,3.50
2018-11-25T22:05:56.589Z,3.40
2018-11-25T22:08:27.948Z,3.40
2018-11-25T22:10:59.741Z,3.40
2018-11-25T22:13:31.249Z,3.40
2018-11-25T22:16:03.268Z,3.40
2018-11-25T22:18:34.810Z,3.40
2018-11-25T22:21:06.738Z,3.40
2018-11-25T22:23:38.459Z,3.30
2018-11-25T22:26:09.903Z,3.30
2018-11-25T22:28:41.464Z,3.20
2018-11-25T22:31:13.594Z,3.20
2018-11-25T22:33:44.948Z,3.20
2018-11-25T22:36:17.020Z,3.10
2018-11-25T22:38:48.502Z,3.10
2018-11-25T22:41:20.124Z,3.10
2018-11-25T22:43:51.560Z,3.00
2018-11-25T22:46:23.076Z,3.00
2018-11-25T22:48:54.830Z,3.00
2018-11-25T22:51:26.487Z,3.00
2018-11-25T22:53:58.197Z,3.00
2018-11-25T22:56:30.092Z,2.90
2018-11-25T22:59:01.786Z,3.00
2018-11-25T23:01:33.367Z,3.00
2018-11-25T23:04:14.928Z,3.00
2018-11-25T23:07:02.047Z,3.00
2018-11-25T23:09:33.484Z,3.00
2018-11-25T23:12:05.554Z,3.10
2018-11-25T23:14:36.941Z,3.20
2018-11-25T23:17:08.742Z,3.30
2018-11-25T23:19:40.209Z,3.30
2018-11-25T23:22:11.934Z,3.30
2018-11-25T23:24:43.636Z,3.30
2018-11-25T23:27:15.243Z,3.30
2018-11-25T23:29:47.714Z,3.30
2018-11-25T23:32:19.715Z,3.30
2018-11-25T23:34:50.987Z,3.20
2018-11-25T23:37:23.207Z,3.20
2018-11-25T23:39:54.918Z,3.20
2018-11-25T23:42:26.503Z,3.10
2018-11-25T23:44:58.088Z,3.20
2018-11-25T23:47:29.559Z,3.20
2018-11-25T23:50:02.105Z,3.30
2018-11-25T23:52:33.846Z,3.20
2018-11-25T23:55:05.666Z,3.30
2018-11-25T23:57:37.970Z,3.20
